sensor_id;sensor_type;location;lat;lon;timestamp;pressure;altitude;pressure_sealevel;temperature;humidity
67931;BME280;63902;52.000;5.954;2023-04-24T00:00:26;99484.31;;;8.51;100.00
67931;BME280;63902;52.000;5.954;2023-04-24T00:01:27;99480.75;;;8.52;100.00
67931;BME280;63902;52.000;5.954;2023-04-24T00:02:27;99484.31;;;8.51;100.00
67931;BME280;63902;52.000;5.954;2023-04-24T00:03:27;99488.66;;;8.52;100.00
67931;BME280;63902;52.000;5.954;2023-04-24T00:04:29;99482.44;;;8.53;100.00
67931;BME280;63902;52.000;5.954;2023-04-24T00:05:30;99494.81;;;8.52;100.00
67931;BME280;63902;52.000;5.954;2023-04-24T00:06:30;99495.66;;;8.53;100.00
67931;BME280;63902;52.000;5.954;2023-04-24T00:07:31;99495.66;;;8.53;100.00
67931;BME280;63902;52.000;5.954;2023-04-24T00:08:31;99491.22;;;8.54;100.00
67931;BME280;63902;52.000;5.954;2023-04-24T00:09:32;99494.69;;;8.54;100.00
67931;BME280;63902;52.000;5.954;2023-04-24T00:10:32;99500.88;;;8.55;100.00
67931;BME280;63902;52.000;5.954;2023-04-24T00:11:33;99496.44;;;8.55;100.00
67931;BME280;63902;52.000;5.954;2023-04-24T00:12:33;99496.44;;;8.55;100.00
67931;BME280;63902;52.000;5.954;2023-04-24T00:13:34;99486.78;;;8.54;100.00
67931;BME280;63902;52.000;5.954;2023-04-24T00:14:34;99492.84;;;8.56;100.00
67931;BME280;63902;52.000;5.954;2023-04-24T00:15:35;99497.22;;;8.57;100.00
67931;BME280;63902;52.000;5.954;2023-04-24T00:16:35;99499.84;;;8.57;100.00
67931;BME280;63902;52.000;5.954;2023-04-24T00:17:36;99493.78;;;8.55;100.00
67931;BME280;63902;52.000;5.954;2023-04-24T00:18:37;99504.25;;;8.57;100.00
67931;BME280;63902;52.000;5.954;2023-04-24T00:19:39;99502.56;;;8.56;100.00
67931;BME280;63902;52.000;5.954;2023-04-24T00:20:39;99502.50;;;8.57;100.00
67931;BME280;63902;52.000;5.954;2023-04-24T00:21:40;99500.88;;;8.55;100.00
67931;BME280;63902;52.000;5.954;2023-04-24T00:22:40;99504.19;;;8.58;100.00
67931;BME280;63902;52.000;5.954;2023-04-24T00:23:41;99498.13;;;8.56;100.00
67931;BME280;63902;52.000;5.954;2023-04-24T00:24:41;99501.56;;;8.58;100.00
67931;BME280;63902;52.000;5.954;2023-04-24T00:25:42;99500.69;;;8.58;100.00
67931;BME280;63902;52.000;5.954;2023-04-24T00:26:42;99509.53;;;8.57;100.00
67931;BME280;63902;52.000;5.954;2023-04-24T00:27:43;99510.44;;;8.57;100.00
67931;BME280;63902;52.000;5.954;2023-04-24T00:28:43;99501.72;;;8.55;100.00
67931;BME280;63902;52.000;5.954;2023-04-24T00:29:44;99500.69;;;8.58;100.00
67931;BME280;63902;52.000;5.954;2023-04-24T00:30:44;99509.47;;;8.58;100.00
67931;BME280;63902;52.000;5.954;2023-04-24T00:31:45;99499.84;;;8.57;100.00
67931;BME280;63902;52.000;5.954;2023-04-24T00:32:46;99497.44;;;8.52;100.00
67931;BME280;63902;52.000;5.954;2023-04-24T00:33:46;99513.13;;;8.56;100.00
67931;BME280;63902;52.000;5.954;2023-04-24T00:34:48;99511.44;;;8.55;100.00
67931;BME280;63902;52.000;5.954;2023-04-24T00:35:48;99508.03;;;8.52;100.00
67931;BME280;63902;52.000;5.954;2023-04-24T00:36:49;99501.94;;;8.50;100.00
67931;BME280;63902;52.000;5.954;2023-04-24T00:37:49;99509.81;;;8.52;100.00
67931;BME280;63902;52.000;5.954;2023-04-24T00:38:50;99509.81;;;8.52;100.00
67931;BME280;63902;52.000;5.954;2023-04-24T00:39:50;99503.75;;;8.50;100.00
67931;BME280;63902;52.000;5.954;2023-04-24T00:40:51;99511.59;;;8.51;100.00
67931;BME280;63902;52.000;5.954;2023-04-24T00:41:52;99521.31;;;8.51;100.00
67931;BME280;63902;52.000;5.954;2023-04-24T00:42:52;99511.59;;;8.51;100.00
67931;BME280;63902;52.000;5.954;2023-04-24T00:43:53;99519.59;;;8.50;100.00
67931;BME280;63902;52.000;5.954;2023-04-24T00:44:53;99505.59;;;8.48;100.00
67931;BME280;63902;52.000;5.954;2023-04-24T00:45:54;99516.19;;;8.48;100.00
67931;BME280;63902;52.000;5.954;2023-04-24T00:46:54;99516.19;;;8.48;100.00
67931;BME280;63902;52.000;5.954;2023-04-24T00:47:55;99514.38;;;8.48;100.00
67931;BME280;63902;52.000;5.954;2023-04-24T00:48:56;99510.16;;;8.46;100.00
67931;BME280;63902;52.000;5.954;2023-04-24T00:49:58;99514.50;;;8.47;100.00
67931;BME280;63902;52.000;5.954;2023-04-24T00:50:58;99511.84;;;8.47;100.00
67931;BME280;63902;52.000;5.954;2023-04-24T00:51:59;99512.78;;;8.46;100.00
67931;BME280;63902;52.000;5.954;2023-04-24T00:53:00;99516.28;;;8.46;100.00
67931;BME280;63902;52.000;5.954;2023-04-24T00:54:00;99517.19;;;8.45;100.00
67931;BME280;63902;52.000;5.954;2023-04-24T00:55:01;99510.28;;;8.43;100.00
67931;BME280;63902;52.000;5.954;2023-04-24T00:56:02;99513.81;;;8.43;100.00
67931;BME280;63902;52.000;5.954;2023-04-24T00:57:03;99513.81;;;8.43;100.00
67931;BME280;63902;52.000;5.954;2023-04-24T00:58:04;99528.78;;;8.43;100.00
67931;BME280;63902;52.000;5.954;2023-04-24T00:59:05;99516.50;;;8.42;100.00
67931;BME280;63902;52.000;5.954;2023-04-24T01:00:06;99523.59;;;8.41;100.00
67931;BME280;63902;52.000;5.954;2023-04-24T01:01:07;99519.25;;;8.40;100.00
67931;BME280;63902;52.000;5.954;2023-04-24T01:02:09;99516.72;;;8.37;100.00
67931;BME280;63902;52.000;5.954;2023-04-24T01:03:09;99507.19;;;8.35;100.00
67931;BME280;63902;52.000;5.954;2023-04-24T01:04:11;99521.09;;;8.38;100.00
67931;BME280;63902;52.000;5.954;2023-04-24T01:05:16;99517.53;;;8.39;100.00
67931;BME280;63902;52.000;5.954;2023-04-24T01:06:16;99515.03;;;8.36;100.00
67931;BME280;63902;52.000;5.954;2023-04-24T01:07:19;99522.88;;;8.38;100.00
67931;BME280;63902;52.000;5.954;2023-04-24T01:08:20;99527.25;;;8.39;100.00
67931;BME280;63902;52.000;5.954;2023-04-24T01:09:23;99522.88;;;8.38;100.00
67931;BME280;63902;52.000;5.954;2023-04-24T01:10:24;99518.50;;;8.37;100.00
67931;BME280;63902;52.000;5.954;2023-04-24T01:11:25;99521.16;;;8.37;100.00
67931;BME280;63902;52.000;5.954;2023-04-24T01:12:26;99514.16;;;8.36;100.00
67931;BME280;63902;52.000;5.954;2023-04-24T01:13:27;99522.09;;;8.36;100.00
67931;BME280;63902;52.000;5.954;2023-04-24T01:14:28;99520.41;;;8.35;100.00
67931;BME280;63902;52.000;5.954;2023-04-24T01:15:28;99515.25;;;8.32;100.00
67931;BME280;63902;52.000;5.954;2023-04-24T01:16:29;99520.41;;;8.35;100.00
67931;BME280;63902;52.000;5.954;2023-04-24T01:17:29;99524.75;;;8.36;100.00
67931;BME280;63902;52.000;5.954;2023-04-24T01:18:30;99521.16;;;8.37;100.00
67931;BME280;63902;52.000;5.954;2023-04-24T01:19:30;99526.44;;;8.37;100.00
67931;BME280;63902;52.000;5.954;2023-04-24T01:20:32;99511.69;;;8.33;100.00
67931;BME280;63902;52.000;5.954;2023-04-24T01:21:36;99513.22;;;8.37;100.00
67931;BME280;63902;52.000;5.954;2023-04-24T01:22:38;99519.31;;;8.39;100.00
67931;BME280;63902;52.000;5.954;2023-04-24T01:23:39;99518.38;;;8.40;100.00
67931;BME280;63902;52.000;5.954;2023-04-24T01:24:39;99518.38;;;8.40;100.00
67931;BME280;63902;52.000;5.954;2023-04-24T01:25:40;99518.31;;;8.41;100.00
67931;BME280;63902;52.000;5.954;2023-04-24T01:26:40;99513.03;;;8.41;100.00
67931;BME280;63902;52.000;5.954;2023-04-24T01:27:41;99515.72;;;8.40;100.00
67931;BME280;63902;52.000;5.954;2023-04-24T01:28:42;99514.66;;;8.44;100.00
67931;BME280;63902;52.000;5.954;2023-04-24T01:29:42;99509.38;;;8.44;100.00
67931;BME280;63902;52.000;5.954;2023-04-24T01:30:43;99516.34;;;8.45;100.00
67931;BME280;63902;52.000;5.954;2023-04-24T01:31:43;99515.44;;;8.46;100.00
67931;BME280;63902;52.000;5.954;2023-04-24T01:32:45;99514.50;;;8.47;100.00
67931;BME280;63902;52.000;5.954;2023-04-24T01:33:46;99509.19;;;8.47;100.00
67931;BME280;63902;52.000;5.954;2023-04-24T01:34:48;99517.13;;;8.47;100.00
67931;BME280;63902;52.000;5.954;2023-04-24T01:35:49;99518.91;;;8.46;100.00
67931;BME280;63902;52.000;5.954;2023-04-24T01:36:49;99517.19;;;8.45;100.00
67931;BME280;63902;52.000;5.954;2023-04-24T01:37:51;99518.06;;;8.46;100.00
67931;BME280;63902;52.000;5.954;2023-04-24T01:38:52;99522.47;;;8.45;100.00
67931;BME280;63902;52.000;5.954;2023-04-24T01:39:52;99518.06;;;8.46;100.00
67931;BME280;63902;52.000;5.954;2023-04-24T01:40:53;99521.63;;;8.45;100.00
67931;BME280;63902;52.000;5.954;2023-04-24T01:41:54;99507.94;;;8.37;100.00
67931;BME280;63902;52.000;5.954;2023-04-24T01:42:54;99517.28;;;8.44;100.00
67931;BME280;63902;52.000;5.954;2023-04-24T01:43:56;99514.72;;;8.42;100.00
67931;BME280;63902;52.000;5.954;2023-04-24T01:44:57;99513.97;;;8.40;100.00
67931;BME280;63902;52.000;5.954;2023-04-24T01:45:58;99519.25;;;8.40;100.00
67931;BME280;63902;52.000;5.954;2023-04-24T01:47:00;99517.34;;;8.42;100.00
67931;BME280;63902;52.000;5.954;2023-04-24T01:48:01;99519.16;;;8.42;100.00
67931;BME280;63902;52.000;5.954;2023-04-24T01:49:01;99519.16;;;8.42;100.00
67931;BME280;63902;52.000;5.954;2023-04-24T01:50:03;99517.47;;;8.41;100.00
67931;BME280;63902;52.000;5.954;2023-04-24T01:51:03;99506.97;;;8.39;100.00
67931;BME280;63902;52.000;5.954;2023-04-24T01:52:04;99519.31;;;8.39;100.00
67931;BME280;63902;52.000;5.954;2023-04-24T01:53:06;99514.94;;;8.38;100.00
67931;BME280;63902;52.000;5.954;2023-04-24T01:54:06;99523.78;;;8.37;100.00
67931;BME280;63902;52.000;5.954;2023-04-24T01:55:08;99521.25;;;8.35;100.00
67931;BME280;63902;52.000;5.954;2023-04-24T01:56:08;99528.31;;;8.35;100.00
67931;BME280;63902;52.000;5.954;2023-04-24T01:57:09;99516.97;;;8.33;100.00
67931;BME280;63902;52.000;5.954;2023-04-24T01:58:10;99519.69;;;8.31;100.00
67931;BME280;63902;52.000;5.954;2023-04-24T01:59:11;99523.34;;;8.28;100.00
67931;BME280;63902;52.000;5.954;2023-04-24T02:00:12;99523.34;;;8.28;100.00
67931;BME280;63902;52.000;5.954;2023-04-24T02:01:15;99522.50;;;8.28;100.00
67931;BME280;63902;52.000;5.954;2023-04-24T02:02:17;99518.22;;;8.25;100.00
67931;BME280;63902;52.000;5.954;2023-04-24T02:03:18;99517.31;;;8.26;100.00
67931;BME280;63902;52.000;5.954;2023-04-24T02:04:18;99519.94;;;8.26;100.00
67931;BME280;63902;52.000;5.954;2023-04-24T02:05:19;99521.72;;;8.26;100.00
67931;BME280;63902;52.000;5.954;2023-04-24T02:06:19;99512.03;;;8.26;100.00
67931;BME280;63902;52.000;5.954;2023-04-24T02:07:20;99521.66;;;8.27;100.00
67931;BME280;63902;52.000;5.954;2023-04-24T02:08:21;99522.59;;;8.26;100.00
67931;BME280;63902;52.000;5.954;2023-04-24T02:09:22;99509.44;;;8.25;100.00
67931;BME280;63902;52.000;5.954;2023-04-24T02:10:22;99510.13;;;8.28;100.00
67931;BME280;63902;52.000;5.954;2023-04-24T02:11:23;99511.91;;;8.28;100.00
67931;BME280;63902;52.000;5.954;2023-04-24T02:12:23;99509.28;;;8.28;100.00
67931;BME280;63902;52.000;5.954;2023-04-24T02:13:24;99511.84;;;8.29;100.00
67931;BME280;63902;52.000;5.954;2023-04-24T02:14:25;99505.84;;;8.26;100.00
67931;BME280;63902;52.000;5.954;2023-04-24T02:15:25;99505.72;;;8.29;100.00
67931;BME280;63902;52.000;5.954;2023-04-24T02:16:26;99511.84;;;8.29;100.00
67931;BME280;63902;52.000;5.954;2023-04-24T02:17:26;99500.44;;;8.29;100.00
67931;BME280;63902;52.000;5.954;2023-04-24T02:18:26;99503.09;;;8.29;100.00
67931;BME280;63902;52.000;5.954;2023-04-24T02:19:27;99504.00;;;8.28;100.00
67931;BME280;63902;52.000;5.954;2023-04-24T02:20:27;99497.88;;;8.27;100.00
67931;BME280;63902;52.000;5.954;2023-04-24T02:21:28;99509.38;;;8.26;100.00
67931;BME280;63902;52.000;5.954;2023-04-24T02:22:28;99515.50;;;8.27;100.00
67931;BME280;63902;52.000;5.954;2023-04-24T02:23:30;99501.47;;;8.26;100.00
67931;BME280;63902;52.000;5.954;2023-04-24T02:24:30;99508.44;;;8.27;100.00
67931;BME280;63902;52.000;5.954;2023-04-24T02:25:31;99514.66;;;8.26;100.00
67931;BME280;63902;52.000;5.954;2023-04-24T02:26:31;99517.31;;;8.26;100.00
67931;BME280;63902;52.000;5.954;2023-04-24T02:27:32;99509.38;;;8.26;100.00
67931;BME280;63902;52.000;5.954;2023-04-24T02:28:32;99510.28;;;8.25;100.00
67931;BME280;63902;52.000;5.954;2023-04-24T02:29:33;99508.44;;;8.27;100.00
67931;BME280;63902;52.000;5.954;2023-04-24T02:30:33;99502.31;;;8.27;100.00
67931;BME280;63902;52.000;5.954;2023-04-24T02:31:33;99510.13;;;8.28;100.00
67931;BME280;63902;52.000;5.954;2023-04-24T02:32:34;99507.41;;;8.30;100.00
67931;BME280;63902;52.000;5.954;2023-04-24T02:33:34;99509.22;;;8.29;100.00
67931;BME280;63902;52.000;5.954;2023-04-24T02:34:35;99509.97;;;8.32;100.00
67931;BME280;63902;52.000;5.954;2023-04-24T02:35:35;99508.19;;;8.32;100.00
67931;BME280;63902;52.000;5.954;2023-04-24T02:36:36;99509.06;;;8.33;100.00
67931;BME280;63902;52.000;5.954;2023-04-24T02:37:36;99501.97;;;8.33;100.00
67931;BME280;63902;52.000;5.954;2023-04-24T02:38:38;99508.09;;;8.34;100.00
67931;BME280;63902;52.000;5.954;2023-04-24T02:39:39;99510.69;;;8.35;100.00
67931;BME280;63902;52.000;5.954;2023-04-24T02:40:40;99505.41;;;8.35;100.00
67931;BME280;63902;52.000;5.954;2023-04-24T02:41:40;99508.88;;;8.36;100.00
67931;BME280;63902;52.000;5.954;2023-04-24T02:42:40;99500.97;;;8.36;100.00
67931;BME280;63902;52.000;5.954;2023-04-24T02:43:41;99510.69;;;8.35;100.00
67931;BME280;63902;52.000;5.954;2023-04-24T02:44:41;99510.59;;;8.37;100.00
67931;BME280;63902;52.000;5.954;2023-04-24T02:45:42;99506.25;;;8.36;100.00
67931;BME280;63902;52.000;5.954;2023-04-24T02:46:42;99505.28;;;8.37;100.00
67931;BME280;63902;52.000;5.954;2023-04-24T02:47:43;99512.38;;;8.36;100.00
67931;BME280;63902;52.000;5.954;2023-04-24T02:48:44;99504.44;;;8.36;100.00
67931;BME280;63902;52.000;5.954;2023-04-24T02:49:44;99501.91;;;8.35;100.00
67931;BME280;63902;52.000;5.954;2023-04-24T02:50:44;99505.41;;;8.35;100.00
67931;BME280;63902;52.000;5.954;2023-04-24T02:51:45;99506.25;;;8.36;100.00
67931;BME280;63902;52.000;5.954;2023-04-24T02:52:45;99506.31;;;8.34;100.00
67931;BME280;63902;52.000;5.954;2023-04-24T02:53:47;99502.81;;;8.34;100.00
67931;BME280;63902;52.000;5.954;2023-04-24T02:54:47;99508.19;;;8.32;100.00
67931;BME280;63902;52.000;5.954;2023-04-24T02:55:48;99508.19;;;8.32;100.00
67931;BME280;63902;52.000;5.954;2023-04-24T02:56:48;99504.63;;;8.33;100.00
67931;BME280;63902;52.000;5.954;2023-04-24T02:57:49;99497.81;;;8.29;100.00
67931;BME280;63902;52.000;5.954;2023-04-24T02:58:49;99509.91;;;8.33;100.00
67931;BME280;63902;52.000;5.954;2023-04-24T02:59:50;99504.69;;;8.32;100.00
67931;BME280;63902;52.000;5.954;2023-04-24T03:00:53;99512.47;;;8.35;100.00
67931;BME280;63902;52.000;5.954;2023-04-24T03:01:53;99502.81;;;8.34;100.00
67931;BME280;63902;52.000;5.954;2023-04-24T03:02:54;99508.09;;;8.34;100.00
67931;BME280;63902;52.000;5.954;2023-04-24T03:03:54;99505.56;;;8.32;100.00
67931;BME280;63902;52.000;5.954;2023-04-24T03:04:55;99511.69;;;8.33;100.00
67931;BME280;63902;52.000;5.954;2023-04-24T03:05:55;99507.25;;;8.33;100.00
67931;BME280;63902;52.000;5.954;2023-04-24T03:06:55;99516.13;;;8.32;100.00
67931;BME280;63902;52.000;5.954;2023-04-24T03:07:56;99517.13;;;8.29;100.00
67931;BME280;63902;52.000;5.954;2023-04-24T03:08:58;99518.06;;;8.28;100.00
67931;BME280;63902;52.000;5.954;2023-04-24T03:09:58;99525.97;;;8.28;100.00
67931;BME280;63902;52.000;5.954;2023-04-24T03:10:59;99517.22;;;8.28;100.00
67931;BME280;63902;52.000;5.954;2023-04-24T03:11:59;99520.69;;;8.28;100.00
67931;BME280;63902;52.000;5.954;2023-04-24T03:13:00;99522.50;;;8.28;100.00
67931;BME280;63902;52.000;5.954;2023-04-24T03:14:00;99524.28;;;8.27;100.00
67931;BME280;63902;52.000;5.954;2023-04-24T03:15:01;99526.13;;;8.25;100.00
67931;BME280;63902;52.000;5.954;2023-04-24T03:16:01;99535.97;;;8.23;100.00
67931;BME280;63902;52.000;5.954;2023-04-24T03:17:02;99528.94;;;8.22;100.00
67931;BME280;63902;52.000;5.954;2023-04-24T03:18:02;99521.03;;;8.22;100.00
67931;BME280;63902;52.000;5.954;2023-04-24T03:19:03;99517.47;;;8.23;100.00
67931;BME280;63902;52.000;5.954;2023-04-24T03:20:04;99523.66;;;8.22;100.00
67931;BME280;63902;52.000;5.954;2023-04-24T03:21:05;99529.88;;;8.21;100.00
67931;BME280;63902;52.000;5.954;2023-04-24T03:22:05;99517.53;;;8.22;100.00
67931;BME280;63902;52.000;5.954;2023-04-24T03:23:05;99520.19;;;8.22;100.00
67931;BME280;63902;52.000;5.954;2023-04-24T03:24:08;99519.31;;;8.21;100.00
67931;BME280;63902;52.000;5.954;2023-04-24T03:25:09;99524.59;;;8.21;100.00
67931;BME280;63902;52.000;5.954;2023-04-24T03:26:09;99521.97;;;8.21;100.00
67931;BME280;63902;52.000;5.954;2023-04-24T03:27:10;99520.19;;;8.22;100.00
67931;BME280;63902;52.000;5.954;2023-04-24T03:28:10;99521.97;;;8.21;100.00
67931;BME280;63902;52.000;5.954;2023-04-24T03:29:10;99522.88;;;8.20;100.00
67931;BME280;63902;52.000;5.954;2023-04-24T03:30:11;99524.59;;;8.21;100.00
67931;BME280;63902;52.000;5.954;2023-04-24T03:31:12;99523.66;;;8.22;100.00
67931;BME280;63902;52.000;5.954;2023-04-24T03:32:12;99522.75;;;8.23;100.00
67931;BME280;63902;52.000;5.954;2023-04-24T03:33:12;99531.59;;;8.22;100.00
67931;BME280;63902;52.000;5.954;2023-04-24T03:34:13;99524.50;;;8.23;100.00
67931;BME280;63902;52.000;5.954;2023-04-24T03:35:13;99528.94;;;8.22;100.00
67931;BME280;63902;52.000;5.954;2023-04-24T03:36:14;99533.38;;;8.22;100.00
67931;BME280;63902;52.000;5.954;2023-04-24T03:37:14;99533.31;;;8.23;100.00
67931;BME280;63902;52.000;5.954;2023-04-24T03:38:15;99535.19;;;8.21;100.00
67931;BME280;63902;52.000;5.954;2023-04-24T03:39:17;99529.97;;;8.20;100.00
67931;BME280;63902;52.000;5.954;2023-04-24T03:40:17;99529.97;;;8.20;100.00
67931;BME280;63902;52.000;5.954;2023-04-24T03:41:18;99532.59;;;8.20;100.00
67931;BME280;63902;52.000;5.954;2023-04-24T03:42:18;99529.09;;;8.19;100.00
67931;BME280;63902;52.000;5.954;2023-04-24T03:43:19;99534.41;;;8.19;100.00
67931;BME280;63902;52.000;5.954;2023-04-24T03:44:19;99533.59;;;8.17;100.00
67931;BME280;63902;52.000;5.954;2023-04-24T03:45:20;99525.63;;;8.19;100.00
67931;BME280;63902;52.000;5.954;2023-04-24T03:46:20;99532.69;;;8.18;100.00
67931;BME280;63902;52.000;5.954;2023-04-24T03:47:21;99532.69;;;8.18;100.00
67931;BME280;63902;52.000;5.954;2023-04-24T03:48:21;99538.88;;;8.17;100.00
67931;BME280;63902;52.000;5.954;2023-04-24T03:49:21;99543.31;;;8.17;100.00
67931;BME280;63902;52.000;5.954;2023-04-24T03:50:22;99539.78;;;8.18;100.00
67931;BME280;63902;52.000;5.954;2023-04-24T03:51:22;99534.56;;;8.16;100.00
67931;BME280;63902;52.000;5.954;2023-04-24T03:52:23;99544.19;;;8.17;100.00
67931;BME280;63902;52.000;5.954;2023-04-24T03:53:23;99542.47;;;8.16;100.00
67931;BME280;63902;52.000;5.954;2023-04-24T03:54:25;99536.34;;;8.16;100.00
67931;BME280;63902;52.000;5.954;2023-04-24T03:55:26;99542.53;;;8.15;100.00
67931;BME280;63902;52.000;5.954;2023-04-24T03:56:26;99534.63;;;8.15;100.00
67931;BME280;63902;52.000;5.954;2023-04-24T03:57:27;99547.91;;;8.13;100.00
67931;BME280;63902;52.000;5.954;2023-04-24T03:58:27;99546.06;;;8.15;100.00
67931;BME280;63902;52.000;5.954;2023-04-24T03:59:28;99543.50;;;8.14;100.00
67931;BME280;63902;52.000;5.954;2023-04-24T04:00:28;99535.56;;;8.14;100.00
67931;BME280;63902;52.000;5.954;2023-04-24T04:01:28;99542.63;;;8.13;100.00
67931;BME280;63902;52.000;5.954;2023-04-24T04:02:29;99537.34;;;8.13;100.00
67931;BME280;63902;52.000;5.954;2023-04-24T04:03:29;99542.63;;;8.13;100.00
67931;BME280;63902;52.000;5.954;2023-04-24T04:04:30;99545.34;;;8.12;100.00
67931;BME280;63902;52.000;5.954;2023-04-24T04:05:30;99544.50;;;8.11;100.00
67931;BME280;63902;52.000;5.954;2023-04-24T04:06:31;99537.53;;;8.10;100.00
67931;BME280;63902;52.000;5.954;2023-04-24T04:07:31;99542.97;;;8.07;100.00
67931;BME280;63902;52.000;5.954;2023-04-24T04:08:32;99548.16;;;8.08;100.00
67931;BME280;63902;52.000;5.954;2023-04-24T04:09:34;99548.25;;;8.07;100.00
67931;BME280;63902;52.000;5.954;2023-04-24T04:10:34;99543.81;;;8.07;100.00
67931;BME280;63902;52.000;5.954;2023-04-24T04:11:34;99547.34;;;8.06;100.00
67931;BME280;63902;52.000;5.954;2023-04-24T04:12:35;99539.59;;;8.03;100.00
67931;BME280;63902;52.000;5.954;2023-04-24T04:13:35;99552.75;;;8.05;100.00
67931;BME280;63902;52.000;5.954;2023-04-24T04:14:36;99549.25;;;8.04;100.00
67931;BME280;63902;52.000;5.954;2023-04-24T04:15:36;99546.59;;;8.04;100.00
67931;BME280;63902;52.000;5.954;2023-04-24T04:16:37;99545.75;;;8.04;100.00
67931;BME280;63902;52.000;5.954;2023-04-24T04:17:37;99546.66;;;8.03;100.00
67931;BME280;63902;52.000;5.954;2023-04-24T04:18:38;99557.22;;;8.03;100.00
67931;BME280;63902;52.000;5.954;2023-04-24T04:19:38;99550.25;;;8.02;100.00
67931;BME280;63902;52.000;5.954;2023-04-24T04:20:39;99550.31;;;8.00;100.00
67931;BME280;63902;52.000;5.954;2023-04-24T04:21:39;99555.53;;;8.02;100.00
67931;BME280;63902;52.000;5.954;2023-04-24T04:22:40;99552.13;;;8.00;100.00
67931;BME280;63902;52.000;5.954;2023-04-24T04:23:41;99553.06;;;7.99;100.00
67931;BME280;63902;52.000;5.954;2023-04-24T04:24:43;99553.06;;;7.99;100.00
67931;BME280;63902;52.000;5.954;2023-04-24T04:25:43;99551.31;;;7.98;100.00
67931;BME280;63902;52.000;5.954;2023-04-24T04:26:44;99546.31;;;7.93;100.00
67931;BME280;63902;52.000;5.954;2023-04-24T04:27:44;99555.13;;;7.92;100.00
67931;BME280;63902;52.000;5.954;2023-04-24T04:28:45;99557.72;;;7.94;100.00
67931;BME280;63902;52.000;5.954;2023-04-24T04:29:45;99557.88;;;7.91;100.00
67931;BME280;63902;52.000;5.954;2023-04-24T04:30:45;99556.88;;;7.93;100.00
67931;BME280;63902;52.000;5.954;2023-04-24T04:31:46;99554.28;;;7.92;100.00
67931;BME280;63902;52.000;5.954;2023-04-24T04:32:46;99559.56;;;7.92;100.00
67931;BME280;63902;52.000;5.954;2023-04-24T04:33:47;99542.94;;;7.90;100.00
67931;BME280;63902;52.000;5.954;2023-04-24T04:34:47;99556.94;;;7.92;100.00
67931;BME280;63902;52.000;5.954;2023-04-24T04:35:48;99546.53;;;7.89;100.00
67931;BME280;63902;52.000;5.954;2023-04-24T04:36:48;99558.78;;;7.90;100.00
67931;BME280;63902;52.000;5.954;2023-04-24T04:37:49;99554.28;;;7.92;100.00
67931;BME280;63902;52.000;5.954;2023-04-24T04:38:49;99546.53;;;7.89;100.00
67931;BME280;63902;52.000;5.954;2023-04-24T04:39:51;99557.03;;;7.90;100.00
67931;BME280;63902;52.000;5.954;2023-04-24T04:40:52;99552.59;;;7.91;100.00
67931;BME280;63902;52.000;5.954;2023-04-24T04:41:52;99552.59;;;7.91;100.00
67931;BME280;63902;52.000;5.954;2023-04-24T04:42:52;99554.38;;;7.90;100.00
67931;BME280;63902;52.000;5.954;2023-04-24T04:43:53;99555.28;;;7.89;100.00
67931;BME280;63902;52.000;5.954;2023-04-24T04:44:53;99551.81;;;7.89;100.00
67931;BME280;63902;52.000;5.954;2023-04-24T04:45:54;99559.81;;;7.87;100.00
67931;BME280;63902;52.000;5.954;2023-04-24T04:46:54;99551.00;;;7.87;100.00
67931;BME280;63902;52.000;5.954;2023-04-24T04:47:55;99558.03;;;7.88;100.00
67931;BME280;63902;52.000;5.954;2023-04-24T04:48:55;99563.31;;;7.88;100.00
67931;BME280;63902;52.000;5.954;2023-04-24T04:49:56;99554.53;;;7.87;100.00
67931;BME280;63902;52.000;5.954;2023-04-24T04:50:56;99552.75;;;7.88;100.00
67931;BME280;63902;52.000;5.954;2023-04-24T04:51:57;99561.66;;;7.85;100.00
67931;BME280;63902;52.000;5.954;2023-04-24T04:52:57;99566.84;;;7.87;100.00
67931;BME280;63902;52.000;5.954;2023-04-24T04:53:57;99560.72;;;7.86;100.00
67931;BME280;63902;52.000;5.954;2023-04-24T04:54:59;99564.38;;;7.83;100.00
67931;BME280;63902;52.000;5.954;2023-04-24T04:56:00;99553.81;;;7.83;100.00
67931;BME280;63902;52.000;5.954;2023-04-24T04:57:00;99559.03;;;7.85;100.00
67931;BME280;63902;52.000;5.954;2023-04-24T04:58:01;99552.91;;;7.84;100.00
67931;BME280;63902;52.000;5.954;2023-04-24T04:59:01;99558.09;;;7.86;100.00
67931;BME280;63902;52.000;5.954;2023-04-24T05:00:02;99554.59;;;7.85;100.00
67931;BME280;63902;52.000;5.954;2023-04-24T05:01:03;99559.88;;;7.85;100.00
67931;BME280;63902;52.000;5.954;2023-04-24T05:02:03;99559.88;;;7.85;100.00
67931;BME280;63902;52.000;5.954;2023-04-24T05:03:04;99558.19;;;7.84;100.00
67931;BME280;63902;52.000;5.954;2023-04-24T05:04:04;99561.72;;;7.83;100.00
67931;BME280;63902;52.000;5.954;2023-04-24T05:05:05;99564.38;;;7.83;100.00
67931;BME280;63902;52.000;5.954;2023-04-24T05:06:06;99560.03;;;7.82;100.00
67931;BME280;63902;52.000;5.954;2023-04-24T05:07:06;99555.59;;;7.83;100.00
67931;BME280;63902;52.000;5.954;2023-04-24T05:08:07;99560.03;;;7.82;100.00
67931;BME280;63902;52.000;5.954;2023-04-24T05:09:07;99562.69;;;7.82;100.00
67931;BME280;63902;52.000;5.954;2023-04-24T05:10:10;99561.81;;;7.82;100.00
67931;BME280;63902;52.000;5.954;2023-04-24T05:11:10;99559.19;;;7.82;100.00
67931;BME280;63902;52.000;5.954;2023-04-24T05:12:11;99556.59;;;7.80;100.00
67931;BME280;63902;52.000;5.954;2023-04-24T05:13:11;99558.34;;;7.81;100.00
67931;BME280;63902;52.000;5.954;2023-04-24T05:14:11;99558.41;;;7.80;100.00
67931;BME280;63902;52.000;5.954;2023-04-24T05:15:12;99562.75;;;7.81;100.00
67931;BME280;63902;52.000;5.954;2023-04-24T05:16:12;99563.63;;;7.81;100.00
67931;BME280;63902;52.000;5.954;2023-04-24T05:17:13;99564.53;;;7.80;100.00
67931;BME280;63902;52.000;5.954;2023-04-24T05:18:13;99569.03;;;7.78;100.00
67931;BME280;63902;52.000;5.954;2023-04-24T05:19:14;99563.63;;;7.81;100.00
67931;BME280;63902;52.000;5.954;2023-04-24T05:20:14;99571.53;;;7.81;100.00
67931;BME280;63902;52.000;5.954;2023-04-24T05:21:15;99573.28;;;7.81;100.00